Terminal Aerodrome Forecast
Issued by NWS

Home | Current Version | Previous Version | Text Only | Print | Product List | Glossary On
Versions: 1 2 3 4 5 6 7 8 9 10 11 12 13 14 15 16 17 18 19 20 21 22 23 24 25 26 27 28 29 30 31 32
000
FTUS43 KDVN 150257 AAA
TAFCID
TAF AMD
KCID 150257Z 1503/1524 17010KT P6SM OVC012
      TEMPO 1503/1506 3SM -RADZ BR OVC007
     FM150600 17008KT 3SM -RADZ OVC007
     FM151000 18007KT 1SM BR OVC005
     FM151300 26011KT 1SM -DZ BR OVC004
     FM151600 31016G25KT P6SM SKC=

USA.gov is the U.S. government's official web portal to all federal, state and local government web resources and services.